Time;durP1;ratioP1;P1;durP2;ratioP2;P2;SDS_P1;SDS_P2;PMS_P1;PMS_P2;Temp;Humidity;BMP_temperature;BMP_pressure;BME280_temperature;BME280_humidity;BME280_pressure;Samples;Min_cycle;Max_cycle;Signal;HPM_P1;HPM_P2
2024/04/01 00:00:36;;;;;;;0.80;0.80;;;;;;;12.07;74.87;99397.78;5074583;28;20024;-76
2024/04/01 00:03:02;;;;;;;0.10;0.10;;;;;;;12.08;75.07;99398.66;5070496;28;20032;-77
2024/04/01 00:05:29;;;;;;;0.10;0.10;;;;;;;12.08;75.03;99394.19;5076179;28;20028;-78
2024/04/01 00:07:56;;;;;;;0.70;0.70;;;;;;;12.11;74.89;99403.81;5076048;28;20020;-76
2024/04/01 00:10:23;;;;;;;0.10;0.10;;;;;;;12.13;74.42;99392.19;5076466;28;20013;-77
2024/04/01 00:12:50;;;;;;;0.22;0.22;;;;;;;12.19;75.15;99392.84;5073149;28;20116;-77
2024/04/01 00:15:18;;;;;;;0.10;0.10;;;;;;;12.24;74.98;99402.28;5088488;28;20065;-77
2024/04/01 00:17:44;;;;;;;0.10;0.10;;;;;;;12.28;74.68;99401.16;5091732;28;20028;-79
2024/04/01 00:20:11;;;;;;;0.20;0.20;;;;;;;12.29;75.12;99399.41;5087450;28;20020;-78
2024/04/01 00:22:37;;;;;;;0.10;0.10;;;;;;;12.29;74.70;99392.28;5078318;28;20028;-77
2024/04/01 00:25:04;;;;;;;0.15;0.15;;;;;;;12.27;75.00;99378.22;5075293;28;20115;-78
2024/04/01 00:27:30;;;;;;;0.10;0.10;;;;;;;12.24;74.54;99377.53;5078506;28;20028;-79
2024/04/01 00:29:56;;;;;;;0.10;0.10;;;;;;;12.22;74.46;99374.06;5076252;28;20020;-77
2024/04/01 00:32:23;;;;;;;0.75;0.75;;;;;;;12.19;74.74;99372.44;5079140;28;20098;-78
2024/04/01 00:34:49;;;;;;;0.10;0.10;;;;;;;12.15;74.52;99373.53;5073665;28;20040;-78
2024/04/01 00:37:15;;;;;;;0.10;0.10;;;;;;;12.13;73.93;99375.41;5071397;28;22091;-78
2024/04/01 00:39:41;;;;;;;0.10;0.10;;;;;;;12.09;74.41;99371.19;5071352;28;20058;-78
2024/04/01 00:42:07;;;;;;;0.10;0.10;;;;;;;12.05;74.12;99377.56;5074050;28;20037;-77
2024/04/01 00:44:34;;;;;;;0.10;0.10;;;;;;;12.01;74.50;99376.84;5064008;28;20028;-76
2024/04/01 00:47:00;;;;;;;0.10;0.10;;;;;;;11.96;74.10;99379.75;5066264;28;20442;-78
2024/04/01 00:49:27;;;;;;;0.10;0.10;;;;;;;11.92;73.74;99377.28;5071967;28;20028;-77
2024/04/01 00:51:54;;;;;;;0.10;0.10;;;;;;;11.88;73.90;99373.94;5072941;28;20025;-76
2024/04/01 00:54:21;;;;;;;0.10;0.10;;;;;;;11.84;74.21;99367.06;5075025;28;20086;-78
2024/04/01 00:56:49;;;;;;;0.10;0.10;;;;;;;11.81;73.90;99361.88;5076043;28;20071;-79
2024/04/01 00:59:18;;;;;;;0.10;0.10;;;;;;;11.78;73.77;99360.25;5074475;28;20077;-78
2024/04/01 01:01:47;;;;;;;0.10;0.10;;;;;;;11.75;73.19;99355.09;5077425;28;20063;-79
2024/04/01 01:04:14;;;;;;;0.10;0.10;;;;;;;11.69;73.42;99362.47;5075307;28;20032;-78
2024/04/01 01:06:42;;;;;;;0.10;0.10;;;;;;;11.65;73.81;99365.28;5078469;28;20138;-78
2024/04/01 01:09:11;;;;;;;0.10;0.10;;;;;;;11.60;73.46;99359.34;5079566;28;20025;-80
2024/04/01 01:11:39;;;;;;;0.10;0.10;;;;;;;11.58;73.59;99363.88;5076016;28;20031;-78
2024/04/01 01:14:05;;;;;;;0.00;0.00;;;;;;;11.56;73.05;99360.41;5076731;28;20035;-78
2024/04/01 01:16:32;;;;;;;0.10;0.10;;;;;;;11.55;73.55;99361.38;5074814;28;20056;-79
2024/04/01 01:18:58;;;;;;;0.10;0.10;;;;;;;11.55;73.44;99357.84;5079125;28;20027;-79
2024/04/01 01:21:24;;;;;;;0.13;0.13;;;;;;;11.51;73.21;99357.13;5082232;28;20037;-78
2024/04/01 01:23:51;;;;;;;0.10;0.10;;;;;;;11.49;73.41;99364.31;5089275;28;20040;-79
2024/04/01 01:26:18;;;;;;;0.10;0.10;;;;;;;11.48;73.14;99367.91;5080191;28;20115;-78
2024/04/01 01:28:45;;;;;;;0.10;0.10;;;;;;;11.45;73.02;99362.72;5077152;28;20419;-77
2024/04/01 01:31:12;;;;;;;0.10;0.10;;;;;;;11.44;73.51;99364.53;5077075;28;20086;-78
2024/04/01 01:33:38;;;;;;;0.10;0.10;;;;;;;11.44;73.21;99371.59;5077867;28;20483;-78
2024/04/01 01:36:05;;;;;;;0.10;0.10;;;;;;;11.42;73.87;99373.50;5076956;28;20480;-79
2024/04/01 01:38:31;;;;;;;0.10;0.10;;;;;;;11.39;73.21;99392.19;5080286;28;20108;-77
2024/04/01 01:40:57;;;;;;;0.10;0.10;;;;;;;11.37;73.53;99396.72;5084299;28;20032;-79
2024/04/01 01:43:24;;;;;;;0.10;0.10;;;;;;;11.33;73.43;99391.53;5079376;28;20020;-77
2024/04/01 01:45:50;;;;;;;0.10;0.10;;;;;;;11.33;73.24;99378.28;5078730;28;20024;-78
2024/04/01 01:48:16;;;;;;;0.00;0.00;;;;;;;11.32;73.57;99376.56;5076542;28;20035;-76
2024/04/01 01:50:42;;;;;;;1.17;0.68;;;;;;;11.29;73.68;99389.09;5075564;28;20037;-77
2024/04/01 01:53:09;;;;;;;0.35;0.35;;;;;;;11.28;73.62;99390.91;5076370;28;20384;-78
2024/04/01 01:55:35;;;;;;;0.10;0.10;;;;;;;11.26;73.06;99394.56;5078570;28;20027;-77
2024/04/01 01:58:02;;;;;;;0.10;0.10;;;;;;;11.25;73.73;99391.06;5073528;28;20028;-77
2024/04/01 02:00:28;;;;;;;0.10;0.10;;;;;;;11.23;73.12;99395.56;5075689;28;20088;-78
2024/04/01 02:02:56;;;;;;;0.10;0.10;;;;;;;11.21;73.36;99401.88;5086160;28;20056;-77
2024/04/01 02:05:22;;;;;;;0.10;0.10;;;;;;;11.20;73.58;99398.34;5092457;28;20017;-79
2024/04/01 02:07:48;;;;;;;0.10;0.10;;;;;;;11.19;73.18;99404.59;5083708;28;20020;-80
2024/04/01 02:10:21;;;;;;;0.10;0.10;;;;;;;11.16;73.44;99404.72;5083305;28;20590;-77
2024/04/01 02:12:49;;;;;;;0.10;0.10;;;;;;;11.14;73.25;99393.31;5075857;28;20561;-78
2024/04/01 02:15:19;;;;;;;0.10;0.10;;;;;;;11.12;73.44;99398.69;5079265;28;20059;-78
2024/04/01 02:17:45;;;;;;;0.10;0.10;;;;;;;11.09;73.59;99401.50;5074593;28;20496;-77
2024/04/01 02:20:15;;;;;;;0.10;0.10;;;;;;;11.08;72.98;99401.53;5080917;28;20028;-77
2024/04/01 02:22:43;;;;;;;0.13;0.13;;;;;;;11.06;73.12;99398.97;5078468;28;20025;-79
2024/04/01 02:25:10;;;;;;;0.10;0.10;;;;;;;11.04;73.01;99405.28;5077077;28;20032;-80
2024/04/01 02:27:36;;;;;;;0.43;0.40;;;;;;;11.03;73.37;99400.91;5082852;28;20023;-77
2024/04/01 02:30:02;;;;;;;0.10;0.10;;;;;;;11.02;72.99;99391.25;5093417;28;20040;-79
2024/04/01 02:32:28;;;;;;;0.10;0.10;;;;;;;11.01;73.42;99400.97;5081905;28;20025;-76
2024/04/01 02:34:54;;;;;;;0.10;0.10;;;;;;;11.00;73.70;99394.81;5070733;28;20024;-77
2024/04/01 02:37:21;;;;;;;0.10;0.10;;;;;;;10.99;73.20;99392.22;5070938;28;20515;-79
2024/04/01 02:39:47;;;;;;;0.10;0.10;;;;;;;10.98;73.65;99388.72;5078630;28;20032;-78
2024/04/01 02:42:13;;;;;;;0.10;0.10;;;;;;;10.98;73.39;99391.38;5071957;28;20523;-76
2024/04/01 02:44:39;;;;;;;0.20;0.20;;;;;;;10.97;73.51;99379.03;5075537;28;20058;-80
2024/04/01 02:47:06;;;;;;;0.20;0.20;;;;;;;10.98;73.49;99383.41;5070736;28;20032;-77
2024/04/01 02:49:32;;;;;;;0.10;0.10;;;;;;;10.97;73.03;99389.66;5071709;28;20104;-79
2024/04/01 02:51:58;;;;;;;0.10;0.10;;;;;;;10.98;73.60;99386.06;5074661;28;20031;-76
2024/04/01 02:54:24;;;;;;;0.10;0.10;;;;;;;10.96;73.20;99392.38;5075253;28;20032;-78
2024/04/01 02:56:50;;;;;;;0.10;0.10;;;;;;;10.95;73.31;99391.53;5076068;28;20028;-79
2024/04/01 02:59:16;;;;;;;0.10;0.10;;;;;;;10.95;73.43;99382.69;5074712;28;20025;-79
2024/04/01 03:01:43;;;;;;;0.30;0.30;;;;;;;10.94;73.70;99384.50;5073626;28;20442;-79
2024/04/01 03:04:09;;;;;;;0.10;0.10;;;;;;;10.95;73.36;99380.94;5075992;28;20052;-78
2024/04/01 03:06:36;;;;;;;0.10;0.10;;;;;;;10.95;73.87;99390.66;5073929;28;20039;-79
2024/04/01 03:09:03;;;;;;;0.10;0.10;;;;;;;10.95;73.58;99394.16;5076810;28;20056;-78
2024/04/01 03:11:29;;;;;;;0.10;0.10;;;;;;;10.94;73.67;99389.78;5075175;28;20032;-79
2024/04/01 03:13:55;;;;;;;0.32;0.32;;;;;;;10.95;73.81;99390.66;5077142;28;20024;-79
2024/04/01 03:16:22;;;;;;;0.10;0.10;;;;;;;10.94;73.70;99394.22;5076024;28;20025;-78
2024/04/01 03:18:48;;;;;;;0.10;0.10;;;;;;;10.94;73.57;99395.09;5075450;28;20034;-78
2024/04/01 03:21:15;;;;;;;0.10;0.10;;;;;;;10.93;73.77;99388.06;5070778;28;20037;-78
2024/04/01 03:23:42;;;;;;;0.10;0.10;;;;;;;10.92;73.72;99389.00;5075378;28;20016;-79
2024/04/01 03:26:08;;;;;;;5.38;1.17;;;;;;;10.92;73.39;99383.69;5071625;28;20036;-79
2024/04/01 03:28:34;;;;;;;0.10;0.10;;;;;;;10.92;73.91;99385.50;5071540;28;20488;-78
2024/04/01 03:31:05;;;;;;;0.10;0.10;;;;;;;10.93;74.09;99385.41;5078304;28;20450;-79
2024/04/01 03:33:32;;;;;;;0.30;0.30;;;;;;;10.92;73.83;99382.84;5077489;28;20040;-79
2024/04/01 03:35:58;;;;;;;0.10;0.10;;;;;;;10.91;73.84;99389.91;5091337;28;20040;-78
2024/04/01 03:38:24;;;;;;;0.10;0.10;;;;;;;10.92;74.00;99383.69;5088743;28;20051;-77
2024/04/01 03:40:52;;;;;;;0.55;0.55;;;;;;;10.93;73.93;99381.88;5080115;28;20037;-77
2024/04/01 03:43:20;;;;;;;0.20;0.20;;;;;;;10.94;74.19;99379.19;5077859;28;20033;-77
2024/04/01 03:45:46;;;;;;;0.10;0.10;;;;;;;10.94;74.51;99373.91;5080226;28;20039;-79
2024/04/01 03:48:13;;;;;;;0.30;0.30;;;;;;;10.94;73.82;99378.31;5083630;28;20028;-79
2024/04/01 03:50:43;;;;;;;0.10;0.10;;;;;;;10.96;73.88;99371.16;5083616;28;20024;-78
2024/04/01 03:53:09;;;;;;;0.35;0.35;;;;;;;10.94;74.13;99371.25;5082102;28;20032;-76
2024/04/01 03:55:35;;;;;;;0.20;0.20;;;;;;;10.92;73.73;99380.19;5083047;28;20034;-78
2024/04/01 03:58:01;;;;;;;0.10;0.10;;;;;;;10.91;74.16;99373.16;5076986;28;20135;-78
2024/04/01 04:00:27;;;;;;;0.10;0.10;;;;;;;10.91;73.59;99374.03;5087443;28;20601;-77
2024/04/01 04:02:53;;;;;;;0.30;0.30;;;;;;;10.90;73.84;99369.63;5085371;28;20036;-77
2024/04/01 04:05:20;;;;;;;0.10;0.10;;;;;;;10.89;74.06;99372.38;5077701;28;20033;-78
2024/04/01 04:07:46;;;;;;;0.10;0.10;;;;;;;10.87;73.91;99377.75;5075499;28;20440;-78
2024/04/01 04:10:12;;;;;;;0.10;0.10;;;;;;;10.84;74.00;99373.44;5078962;28;20016;-78
2024/04/01 04:12:39;;;;;;;0.10;0.10;;;;;;;10.83;73.70;99378.81;5074820;28;20031;-76
2024/04/01 04:15:06;;;;;;;0.10;0.10;;;;;;;10.80;73.97;99371.00;5082054;28;20027;-78
2024/04/01 04:17:32;;;;;;;0.10;0.10;;;;;;;10.80;74.07;99382.47;5075452;28;20506;-78
2024/04/01 04:19:59;;;;;;;0.10;0.10;;;;;;;10.78;74.01;99383.44;5072662;28;20436;-77
2024/04/01 04:22:25;;;;;;;0.10;0.10;;;;;;;10.78;73.88;99383.44;5075398;28;20400;-76
2024/04/01 04:24:51;;;;;;;0.10;0.10;;;;;;;10.77;73.96;99381.75;5081581;28;20399;-78
2024/04/01 04:27:17;;;;;;;0.10;0.10;;;;;;;10.76;74.02;99386.16;5084961;28;20052;-76
2024/04/01 04:29:43;;;;;;;0.20;0.20;;;;;;;10.76;73.65;99383.50;5085640;28;20112;-79
2024/04/01 04:32:11;;;;;;;0.30;0.30;;;;;;;10.77;73.64;99390.53;5075961;28;20496;-79
2024/04/01 04:34:38;;;;;;;0.10;0.10;;;;;;;10.77;73.82;99393.19;5079072;28;20024;-79
2024/04/01 04:37:07;;;;;;;0.10;0.10;;;;;;;10.77;73.94;99390.53;5076113;28;20024;-79
2024/04/01 04:39:34;;;;;;;0.10;0.10;;;;;;;10.79;73.80;99401.06;5080146;28;20051;-77
2024/04/01 04:42:00;;;;;;;0.10;0.10;;;;;;;10.78;73.58;99397.56;5079695;28;20032;-78
2024/04/01 04:44:27;;;;;;;0.10;0.10;;;;;;;10.81;74.36;99400.06;5090439;28;20054;-78
2024/04/01 04:46:53;;;;;;;0.17;0.17;;;;;;;10.83;73.95;99400.03;5083567;28;20123;-77
2024/04/01 04:49:19;;;;;;;0.10;0.10;;;;;;;10.86;73.96;99418.41;5088253;28;20017;-76
2024/04/01 04:51:46;;;;;;;0.25;0.25;;;;;;;10.87;74.30;99403.41;5077019;28;20035;-76
2024/04/01 04:54:12;;;;;;;0.20;0.20;;;;;;;10.88;73.81;99403.31;5081688;28;20028;-77
2024/04/01 04:56:38;;;;;;;0.10;0.10;;;;;;;10.90;74.28;99409.38;5077020;28;20563;-78
2024/04/01 04:59:05;;;;;;;0.10;0.10;;;;;;;10.91;74.02;99413.75;5074758;28;20119;-77
2024/04/01 05:01:32;;;;;;;0.20;0.20;;;;;;;10.89;74.23;99406.81;5077008;28;20381;-77
2024/04/01 05:03:59;;;;;;;0.10;0.10;;;;;;;10.90;74.35;99406.75;5075394;28;20048;-78
2024/04/01 05:06:25;;;;;;;0.43;0.43;;;;;;;10.91;73.92;99416.41;5078153;28;20078;-79
2024/04/01 05:08:51;;;;;;;0.10;0.10;;;;;;;10.90;73.97;99403.25;5079193;28;20031;-79
2024/04/01 05:11:17;;;;;;;0.10;0.10;;;;;;;10.90;73.93;99403.25;5074426;28;20043;-79
2024/04/01 05:13:43;;;;;;;0.10;0.10;;;;;;;10.90;74.25;99413.84;5078381;28;20099;-79
2024/04/01 05:16:10;;;;;;;0.10;0.10;;;;;;;10.88;74.32;99402.44;5078244;28;20063;-79
2024/04/01 05:18:36;;;;;;;0.20;0.20;;;;;;;10.90;74.02;99414.69;5077124;28;20067;-78
2024/04/01 05:21:02;;;;;;;0.10;0.10;;;;;;;10.86;74.23;99421.06;5078957;28;20032;-79
2024/04/01 05:23:29;;;;;;;0.13;0.13;;;;;;;10.88;74.63;99419.22;5079224;28;20032;-79
2024/04/01 05:25:55;;;;;;;0.00;0.00;;;;;;;10.88;74.68;99421.00;5075252;28;20107;-80
2024/04/01 05:28:22;;;;;;;0.10;0.10;;;;;;;10.89;74.29;99420.06;5079910;28;20032;-80
2024/04/01 05:30:53;;;;;;;0.10;0.10;;;;;;;10.90;74.55;99422.63;5075430;28;20073;-78
2024/04/01 05:33:20;;;;;;;0.10;0.10;;;;;;;10.93;74.53;99430.47;5076894;28;20031;-78
2024/04/01 05:35:48;;;;;;;0.60;0.60;;;;;;;10.94;73.94;99432.19;5076888;28;20039;-75
2024/04/01 05:38:15;;;;;;;0.10;0.10;;;;;;;10.95;74.33;99433.94;5075898;28;20039;-77
2024/04/01 05:40:41;;;;;;;0.10;0.10;;;;;;;10.94;74.25;99437.50;5074245;28;20017;-79
2024/04/01 05:43:07;;;;;;;0.63;0.47;;;;;;;10.94;74.23;99436.63;5078638;28;20040;-79
2024/04/01 05:45:34;;;;;;;0.10;0.10;;;;;;;10.93;74.47;99446.38;5076252;28;20438;-79
2024/04/01 05:48:00;;;;;;;0.10;0.10;;;;;;;10.95;74.71;99448.94;5072302;28;20149;-77
2024/04/01 05:50:27;;;;;;;0.10;0.10;;;;;;;10.96;74.75;99453.31;5080975;28;20045;-78
2024/04/01 05:52:53;;;;;;;1.40;1.30;;;;;;;10.91;74.82;99453.50;5086115;28;20071;-79
2024/04/01 05:55:20;;;;;;;0.10;0.10;;;;;;;10.94;74.61;99452.50;5077701;28;20536;-79
2024/04/01 05:57:46;;;;;;;0.10;0.10;;;;;;;10.99;74.93;99459.34;5077119;28;20029;-80
2024/04/01 06:00:12;;;;;;;0.10;0.10;;;;;;;11.04;74.59;99458.28;5075333;28;20086;-78
2024/04/01 06:02:39;;;;;;;0.10;0.10;;;;;;;11.07;74.64;99455.50;5077675;28;20033;-77
2024/04/01 06:05:05;;;;;;;0.10;0.10;;;;;;;11.07;74.82;99459.00;5081168;28;20032;-76
2024/04/01 06:07:32;;;;;;;0.10;0.10;;;;;;;11.11;74.17;99462.38;5077937;28;20036;-78
2024/04/01 06:09:59;;;;;;;0.10;0.10;;;;;;;11.03;74.59;99456.56;5081090;28;20017;-76
2024/04/01 06:12:26;;;;;;;0.10;0.10;;;;;;;11.02;75.24;99458.34;5079381;28;20025;-78
2024/04/01 06:14:52;;;;;;;0.10;0.10;;;;;;;11.00;74.98;99458.44;5074316;28;20024;-79
2024/04/01 06:17:19;;;;;;;0.28;0.28;;;;;;;11.03;74.77;99467.16;5073905;28;20501;-79
2024/04/01 06:19:45;;;;;;;0.15;0.15;;;;;;;10.97;75.26;99461.19;5073750;28;20027;-79
2024/04/01 06:22:11;;;;;;;0.20;0.20;;;;;;;10.98;74.92;99460.28;5076665;28;20056;-78
2024/04/01 06:24:38;;;;;;;0.10;0.10;;;;;;;11.06;75.20;99461.72;5072871;28;20017;-79
2024/04/01 06:27:05;;;;;;;0.10;0.10;;;;;;;11.07;75.02;99468.75;5073253;28;20029;-79
2024/04/01 06:29:33;;;;;;;0.10;0.10;;;;;;;11.13;75.03;99463.19;5078852;28;20079;-78
2024/04/01 06:31:59;;;;;;;0.10;0.10;;;;;;;11.15;75.77;99471.91;5074088;28;20056;-79
2024/04/01 06:34:25;;;;;;;0.10;0.10;;;;;;;11.21;75.44;99466.34;5078928;28;20484;-78
2024/04/01 06:36:51;;;;;;;0.10;0.10;;;;;;;11.25;75.94;99473.25;5081171;28;20391;-77
2024/04/01 06:39:18;;;;;;;0.15;0.15;;;;;;;11.30;75.76;99470.38;5076128;28;20111;-79
2024/04/01 06:41:44;;;;;;;0.10;0.10;;;;;;;11.43;75.72;99470.69;5076611;28;20507;-75
2024/04/01 06:44:10;;;;;;;0.10;0.10;;;;;;;11.47;75.39;99474.91;5074380;28;20519;-78
2024/04/01 06:46:37;;;;;;;0.10;0.10;;;;;;;11.52;75.43;99480.88;5075268;28;20027;-80
2024/04/01 06:49:04;;;;;;;0.10;0.10;;;;;;;11.52;75.31;99483.53;5080274;28;20033;-79
2024/04/01 06:51:31;;;;;;;0.10;0.10;;;;;;;11.54;75.65;99489.63;5075710;28;20016;-80
2024/04/01 06:53:58;;;;;;;0.35;0.35;;;;;;;11.54;75.48;99486.97;5074831;28;20035;-79
2024/04/01 06:56:24;;;;;;;0.10;0.10;;;;;;;11.57;76.05;99496.56;5077956;28;20046;-79
2024/04/01 06:58:51;;;;;;;0.10;0.10;;;;;;;11.59;75.46;99502.66;5083256;28;20026;-79
2024/04/01 07:01:17;;;;;;;0.10;0.10;;;;;;;11.58;75.73;99493.00;5077457;28;20646;-79
2024/04/01 07:03:43;;;;;;;0.10;0.10;;;;;;;11.56;76.01;99495.69;5076455;28;20507;-76
2024/04/01 07:06:10;;;;;;;0.20;0.20;;;;;;;11.58;76.10;99501.81;5073223;28;20060;-77
2024/04/01 07:08:36;;;;;;;0.20;0.20;;;;;;;11.59;75.88;99500.88;5079177;28;20050;-78
2024/04/01 07:11:03;;;;;;;0.20;0.20;;;;;;;11.60;75.97;99494.66;5073207;28;20025;-79
2024/04/01 07:13:29;;;;;;;0.10;0.10;;;;;;;11.70;75.97;99504.81;5076071;28;20044;-79
2024/04/01 07:15:57;;;;;;;0.10;0.10;;;;;;;11.75;75.81;99506.34;5076906;28;20036;-77
2024/04/01 07:18:25;;;;;;;1.95;0.60;;;;;;;11.79;76.25;99509.72;5080139;28;20039;-78
2024/04/01 07:20:51;;;;;;;0.10;0.10;;;;;;;11.90;76.02;99507.44;5077342;28;20395;-79
2024/04/01 07:23:17;;;;;;;0.10;0.10;;;;;;;11.95;75.90;99499.22;5080534;28;20040;-78
2024/04/01 07:25:45;;;;;;;0.10;0.10;;;;;;;11.97;75.92;99514.19;5077717;28;20016;-76
2024/04/01 07:28:11;;;;;;;0.75;0.75;;;;;;;12.07;75.46;99511.09;5080899;28;20024;-80
2024/04/01 07:30:37;;;;;;;0.10;0.10;;;;;;;12.13;75.76;99508.16;5079158;28;20031;-80
2024/04/01 07:33:04;;;;;;;0.00;0.00;;;;;;;12.22;75.63;99502.38;5080441;28;20036;-79
2024/04/01 07:35:30;;;;;;;0.47;0.47;;;;;;;12.32;75.71;99512.56;5079989;28;20024;-80
2024/04/01 07:37:56;;;;;;;0.20;0.20;;;;;;;12.35;75.28;99507.09;5079181;28;20035;-79
2024/04/01 07:40:23;;;;;;;0.10;0.10;;;;;;;12.34;75.07;99508.06;5076138;28;20028;-80
2024/04/01 07:42:49;;;;;;;0.10;0.10;;;;;;;12.40;74.68;99508.63;5079687;28;20039;-79
2024/04/01 07:45:15;;;;;;;0.13;0.13;;;;;;;12.36;74.75;99509.72;5077645;28;20056;-79
2024/04/01 07:47:41;;;;;;;1.55;0.55;;;;;;;12.40;74.73;99526.31;5079225;28;20031;-79
2024/04/01 07:50:08;;;;;;;0.10;0.10;;;;;;;12.46;74.51;99526.03;5078820;28;20088;-76
2024/04/01 07:52:35;;;;;;;0.10;0.10;;;;;;;12.48;74.60;99532.13;5083039;28;20028;-79
2024/04/01 07:55:02;;;;;;;0.10;0.10;;;;;;;12.45;73.83;99534.97;5078245;28;20102;-79
2024/04/01 07:57:31;;;;;;;0.10;0.10;;;;;;;12.47;73.70;99543.69;5079329;28;20042;-77
2024/04/01 07:59:59;;;;;;;0.10;0.10;;;;;;;12.51;74.12;99547.06;5075590;28;20534;-79
2024/04/01 08:02:25;;;;;;;0.50;0.50;;;;;;;12.49;73.61;99548.97;5081467;28;20038;-76
2024/04/01 08:04:52;;;;;;;0.10;0.10;;;;;;;12.52;73.52;99556.75;5077719;28;20032;-78
2024/04/01 08:07:18;;;;;;;0.10;0.10;;;;;;;12.56;73.80;99553.88;5077485;28;20033;-79
2024/04/01 08:09:44;;;;;;;0.15;0.15;;;;;;;12.56;73.22;99553.88;5077827;28;20023;-80
2024/04/01 08:12:11;;;;;;;0.22;0.22;;;;;;;12.59;73.54;99559.03;5077513;28;20063;-78
2024/04/01 08:14:37;;;;;;;0.10;0.10;;;;;;;12.60;73.28;99566.06;5077827;28;20052;-80
2024/04/01 08:17:04;;;;;;;0.10;0.10;;;;;;;12.70;73.28;99570.97;5079994;28;20032;-79
2024/04/01 08:19:30;;;;;;;0.10;0.10;;;;;;;12.60;72.81;99576.72;5071829;28;20055;-79
2024/04/01 08:21:56;;;;;;;0.10;0.10;;;;;;;12.66;72.91;99570.25;5078489;28;20488;-79
2024/04/01 08:24:23;;;;;;;0.20;0.20;;;;;;;12.64;72.54;99581.88;5076201;28;20028;-77
2024/04/01 08:26:50;;;;;;;3.20;2.17;;;;;;;12.67;72.92;99577.25;5076010;28;20021;-79
2024/04/01 08:29:16;;;;;;;0.10;0.10;;;;;;;12.71;72.60;99585.94;5078228;28;20480;-80
2024/04/01 08:31:42;;;;;;;0.10;0.10;;;;;;;12.68;73.02;99594.94;5078240;28;20107;-80
2024/04/01 08:34:09;;;;;;;0.30;0.30;;;;;;;12.68;72.72;99604.72;5074202;28;20035;-79
2024/04/01 08:36:36;;;;;;;0.52;0.52;;;;;;;12.67;72.53;99609.16;5079805;28;20024;-80
2024/04/01 08:39:03;;;;;;;0.10;0.10;;;;;;;12.79;72.34;99597.91;5075949;28;20035;-80
2024/04/01 08:46:50;;;;;;;0.10;0.10;;;;;;;12.88;72.78;99595.75;5108247;27;1245636;-79
2024/04/01 08:49:21;;;;;;;0.10;0.10;;;;;;;13.01;71.61;99594.22;5125369;27;20039;-78
2024/04/01 08:51:48;;;;;;;0.20;0.20;;;;;;;13.10;71.51;99593.72;5120980;28;20034;-80
2024/04/01 08:54:15;;;;;;;0.20;0.20;;;;;;;13.11;71.14;99594.63;5108392;28;20035;-79
2024/04/01 08:56:41;;;;;;;0.13;0.13;;;;;;;13.10;70.59;99598.19;5110315;28;20032;-80
2024/04/01 08:59:09;;;;;;;10.63;1.45;;;;;;;13.12;70.38;99612.25;5109982;28;20402;-79
2024/04/01 09:01:36;;;;;;;0.13;0.13;;;;;;;13.20;70.63;99607.44;5102066;28;20398;-80
2024/04/01 09:04:03;;;;;;;0.10;0.10;;;;;;;13.23;70.99;99612.59;5109000;28;20020;-79
2024/04/01 09:06:30;;;;;;;0.10;0.10;;;;;;;13.21;70.21;99618.94;5110135;28;20028;-79
2024/04/01 09:08:56;;;;;;;0.20;0.20;;;;;;;13.21;69.57;99621.59;5108182;28;20025;-79
2024/04/01 09:11:24;;;;;;;0.25;0.25;;;;;;;13.01;69.33;99628.78;5109329;28;20024;-80
2024/04/01 09:13:51;;;;;;;0.20;0.20;;;;;;;13.11;70.37;99623.88;5110070;28;20111;-80
2024/04/01 09:16:21;;;;;;;0.13;0.13;;;;;;;13.09;69.23;99620.41;5110771;28;20024;-80
2024/04/01 09:18:49;;;;;;;1.35;0.65;;;;;;;13.10;69.69;99622.13;5110865;28;20107;-78
2024/04/01 09:21:19;;;;;;;0.10;0.10;;;;;;;13.11;69.92;99632.69;5109458;28;20027;-80
2024/04/01 09:23:46;;;;;;;0.10;0.10;;;;;;;13.06;70.35;99637.38;5109514;28;20032;-79
2024/04/01 09:26:13;;;;;;;0.10;0.10;;;;;;;13.01;69.41;99651.81;5112430;28;20024;-76
2024/04/01 09:28:39;;;;;;;0.10;0.10;;;;;;;13.02;69.89;99654.44;5114995;28;20019;-78
2024/04/01 09:31:07;;;;;;;0.28;0.28;;;;;;;13.07;69.71;99654.19;5115891;28;20043;-78
2024/04/01 09:33:34;;;;;;;0.10;0.10;;;;;;;13.11;69.28;99661.94;5115191;28;20049;-78
2024/04/01 09:36:01;;;;;;;0.43;0.43;;;;;;;13.08;68.76;99678.06;5114131;28;20024;-79
2024/04/01 09:38:28;;;;;;;0.10;0.10;;;;;;;13.16;69.33;99651.09;5118482;28;20019;-78
2024/04/01 09:40:58;;;;;;;0.30;0.30;;;;;;;13.18;68.76;99657.16;5117337;28;20039;-79
2024/04/01 09:43:29;;;;;;;2.28;0.80;;;;;;;13.30;68.13;99661.03;5110859;28;20046;-77
2024/04/01 09:45:56;;;;;;;0.10;0.10;;;;;;;13.39;68.99;99659.72;5111081;28;20032;-79
2024/04/01 09:48:26;;;;;;;0.10;0.10;;;;;;;13.43;67.88;99661.28;5109656;28;20227;-78
2024/04/01 09:50:58;;;;;;;0.13;0.13;;;;;;;13.46;67.51;99655.81;5107914;28;20016;-80
2024/04/01 09:53:26;;;;;;;0.30;0.30;;;;;;;13.47;67.45;99652.22;5108387;28;20028;-80
2024/04/01 09:59:14;;;;;;;0.10;0.10;;;;;;;13.45;66.93;99654.09;5115278;27;20384;-78
2024/04/01 10:05:13;;;;;;;0.10;0.10;;;;;;;13.63;67.04;99648.78;5116170;27;20448;-79
2024/04/01 10:10:57;;;;;;;0.10;0.10;;;;;;;13.65;66.51;99645.09;5115998;27;20391;-79
2024/04/01 10:19:55;;;;;;;0.10;0.10;;;;;;;13.85;66.85;99653.84;5112473;27;20376;-80
2024/04/01 10:36:31;;;;;;;0.10;0.10;;;;;;;13.89;64.69;99679.34;5026977;28;20715;-80
2024/04/01 10:51:04;;;;;;;0.10;0.10;;;;;;;13.96;64.57;99695.88;5079835;28;20378;-81
2024/04/01 10:53:56;;;;;;;0.10;0.10;;;;;;;13.89;63.72;99698.88;5040588;28;20060;-80
2024/04/01 10:59:54;;;;;;;0.10;0.10;;;;;;;14.00;64.12;99714.25;5122249;27;20887;-83
2024/04/01 11:08:25;;;;;;;0.17;0.17;;;;;;;13.98;63.21;99720.63;5118924;27;20139;-81
2024/04/01 11:11:27;;;;;;;0.10;0.10;;;;;;;14.03;63.12;99715.91;5103561;28;20627;-80
2024/04/01 11:13:54;;;;;;;0.10;0.10;;;;;;;13.96;63.17;99725.19;5095585;28;20034;-80
2024/04/01 11:16:27;;;;;;;0.10;0.10;;;;;;;14.04;63.54;99730.94;5099201;28;20021;-80
2024/04/01 11:21:48;;;;;;;0.10;0.10;;;;;;;14.00;62.37;99745.38;5105718;27;20411;-79
2024/04/01 11:24:35;;;;;;;0.20;0.20;;;;;;;14.10;62.60;99743.09;5098072;28;20605;-79
2024/04/01 11:30:06;;;;;;;0.10;0.10;;;;;;;14.19;62.41;99740.81;5149771;27;20357;-79
2024/04/01 11:32:38;;;;;;;0.10;0.10;;;;;;;13.99;61.85;99746.31;5137655;27;20397;-80
2024/04/01 11:40:38;;;;;;;0.32;0.32;;;;;;;14.19;61.56;99746.13;5118518;27;20758;-78
2024/04/01 11:43:08;;;;;;;0.10;0.10;;;;;;;14.22;61.21;99751.28;5097736;28;20024;-77
2024/04/01 11:45:38;;;;;;;0.10;0.10;;;;;;;14.24;61.69;99753.88;5101690;28;20495;-78
2024/04/01 11:48:05;;;;;;;0.30;0.30;;;;;;;14.33;61.40;99757.84;5094450;28;20027;-79
2024/04/01 11:50:32;;;;;;;0.85;0.85;;;;;;;14.35;61.00;99750.66;5100445;28;20030;-78
2024/04/01 11:53:00;;;;;;;0.10;0.10;;;;;;;14.40;60.42;99759.25;5096375;28;20522;-76
2024/04/01 11:55:27;;;;;;;0.10;0.10;;;;;;;14.45;60.43;99759.00;5091775;28;20501;-77
2024/04/01 11:57:54;;;;;;;0.10;0.10;;;;;;;14.51;59.73;99762.19;5092053;28;20020;-80
2024/04/01 12:00:21;;;;;;;0.30;0.30;;;;;;;14.56;59.89;99759.28;5087499;28;20116;-78
2024/04/01 12:02:56;;;;;;;0.10;0.10;;;;;;;14.63;59.86;99760.69;5086403;28;20075;-78
2024/04/01 12:05:22;;;;;;;0.30;0.30;;;;;;;14.67;60.09;99758.75;5089574;28;20103;-78
2024/04/01 12:07:51;;;;;;;0.03;0.03;;;;;;;14.77;59.54;99772.44;5096214;28;20490;-79
2024/04/01 12:10:18;;;;;;;0.10;0.10;;;;;;;14.82;59.19;99763.22;5095047;28;20021;-79
2024/04/01 12:12:48;;;;;;;0.10;0.10;;;;;;;14.97;59.26;99768.69;5096875;28;20024;-79
2024/04/01 12:15:17;;;;;;;0.10;0.10;;;;;;;14.95;58.01;99779.41;5097654;28;20028;-79
2024/04/01 12:17:45;;;;;;;0.10;0.10;;;;;;;14.99;58.34;99772.09;5097134;28;20046;-79
2024/04/01 12:20:12;;;;;;;0.13;0.13;;;;;;;15.02;58.04;99783.47;5097244;28;20017;-79
2024/04/01 12:22:40;;;;;;;0.10;0.10;;;;;;;15.14;57.98;99781.94;5096339;28;20024;-77
2024/04/01 12:25:10;;;;;;;0.10;0.10;;;;;;;15.23;57.13;99785.00;5095945;28;20044;-79
2024/04/01 12:27:37;;;;;;;1.10;0.82;;;;;;;15.25;57.31;99777.78;5099971;28;20051;-79
2024/04/01 12:30:06;;;;;;;0.10;0.10;;;;;;;15.46;56.80;99783.72;5093266;28;20012;-79
2024/04/01 12:32:47;;;;;;;0.10;0.10;;;;;;;15.63;55.50;99788.94;5099254;28;20020;-78
2024/04/01 12:35:14;;;;;;;0.20;0.20;;;;;;;15.67;55.82;99789.63;5093245;28;20383;-79
2024/04/01 12:37:42;;;;;;;0.30;0.30;;;;;;;15.76;56.09;99789.06;5098441;28;20546;-80
2024/04/01 12:40:10;;;;;;;0.10;0.10;;;;;;;15.73;54.76;99801.78;5096521;28;20025;-78
2024/04/01 12:42:37;;;;;;;1.20;1.13;;;;;;;15.69;54.01;99798.41;5098191;28;20055;-80